TimeEDT,TemperatureF,Dew PointF,Humidity,Sea Level PressureIn,VisibilityMPH,Wind Direction,Wind SpeedMPH,Gust SpeedMPH,PrecipitationIn,Events,Conditions,WindDirDegrees,DateUTC
12:15 AM,59.0,55.4,88,30.13,10.0,SE,6.9,-,N/A,,Partly Cloudy,140,2013-07-31 04:15:00
12:35 AM,59.0,55.4,88,30.13,10.0,SE,6.9,-,N/A,,Clear,130,2013-07-31 04:35:00
12:55 AM,59.0,55.4,88,30.13,10.0,SE,5.8,-,N/A,,Clear,130,2013-07-31 04:55:00
1:15 AM,57.2,55.4,94,30.13,10.0,SE,6.9,-,N/A,,Clear,130,2013-07-31 05:15:00
1:35 AM,57.2,55.4,94,30.13,10.0,SE,5.8,-,N/A,,Clear,130,2013-07-31 05:35:00
1:55 AM,57.2,55.4,94,30.13,10.0,SE,6.9,-,N/A,,Clear,130,2013-07-31 05:55:00
2:15 AM,57.2,55.4,94,30.13,10.0,ESE,4.6,-,N/A,,Clear,120,2013-07-31 06:15:00
2:55 AM,55.4,53.6,94,30.14,10.0,SE,5.8,-,N/A,,Clear,130,2013-07-31 06:55:00
3:15 AM,55.4,53.6,94,30.14,10.0,ESE,3.5,-,N/A,,Clear,120,2013-07-31 07:15:00
3:35 AM,55.4,53.6,94,30.14,10.0,SSE,5.8,-,N/A,,Clear,160,2013-07-31 07:35:00
3:55 AM,55.4,53.6,94,30.14,10.0,ESE,4.6,-,N/A,,Clear,110,2013-07-31 07:55:00
4:15 AM,55.4,53.6,94,30.14,10.0,SE,6.9,-,N/A,,Clear,130,2013-07-31 08:15:00
4:35 AM,55.4,53.6,94,30.14,10.0,SE,3.5,-,N/A,,Clear,140,2013-07-31 08:35:00
4:55 AM,53.6,51.8,94,30.15,10.0,SE,6.9,-,N/A,,Clear,130,2013-07-31 08:55:00
5:15 AM,55.4,51.8,88,30.15,10.0,ESE,9.2,-,N/A,,Clear,120,2013-07-31 09:15:00
5:35 AM,53.6,51.8,94,30.16,10.0,SE,6.9,-,N/A,,Clear,130,2013-07-31 09:35:00
5:55 AM,53.6,51.8,94,30.16,10.0,ESE,5.8,-,N/A,,Clear,120,2013-07-31 09:55:00
6:15 AM,53.6,51.8,94,30.17,10.0,SE,5.8,-,N/A,,Clear,140,2013-07-31 10:15:00
6:35 AM,55.4,51.8,88,30.17,10.0,SE,10.4,-,N/A,,Clear,130,2013-07-31 10:35:00
6:55 AM,55.4,53.6,94,30.17,10.0,ESE,8.1,-,N/A,,Clear,120,2013-07-31 10:55:00
7:15 AM,57.2,55.4,94,30.17,10.0,SE,4.6,-,N/A,,Clear,140,2013-07-31 11:15:00
7:35 AM,59.0,55.4,88,30.17,10.0,ESE,4.6,-,N/A,,Clear,120,2013-07-31 11:35:00
7:55 AM,60.8,55.4,82,30.17,10.0,SE,3.5,-,N/A,,Clear,140,2013-07-31 11:55:00
8:15 AM,60.8,55.4,82,30.17,10.0,SE,3.5,-,N/A,,Clear,140,2013-07-31 12:15:00
8:35 AM,62.6,57.2,82,30.17,10.0,Calm,Calm,-,N/A,,Clear,0,2013-07-31 12:35:00
8:55 AM,64.4,57.2,77,30.16,10.0,Calm,Calm,-,N/A,,Clear,0,2013-07-31 12:55:00
9:15 AM,66.2,57.2,73,30.16,10.0,Calm,Calm,-,N/A,,Clear,0,2013-07-31 13:15:00
9:35 AM,66.2,57.2,73,30.15,10.0,Calm,Calm,-,N/A,,Clear,0,2013-07-31 13:35:00
9:55 AM,68.0,57.2,68,30.15,10.0,Calm,Calm,-,N/A,,Clear,0,2013-07-31 13:55:00
10:15 AM,69.8,57.2,64,30.15,10.0,Calm,Calm,-,N/A,,Clear,0,2013-07-31 14:15:00
10:35 AM,69.8,57.2,64,30.14,10.0,Calm,Calm,-,N/A,,Clear,0,2013-07-31 14:35:00
10:55 AM,71.6,57.2,60,30.14,10.0,NNW,3.5,-,N/A,,Clear,330,2013-07-31 14:55:00
11:15 AM,71.6,57.2,60,30.14,10.0,Calm,Calm,-,N/A,,Partly Cloudy,0,2013-07-31 15:15:00
11:35 AM,73.4,59.0,61,30.13,10.0,NNW,6.9,-,N/A,,Scattered Clouds,340,2013-07-31 15:35:00
11:55 AM,73.4,59.0,61,30.13,10.0,West,4.6,-,N/A,,Partly Cloudy,260,2013-07-31 15:55:00
12:15 PM,73.4,57.2,57,30.13,10.0,WNW,8.1,-,N/A,,Scattered Clouds,300,2013-07-31 16:15:00
12:35 PM,73.4,57.2,57,30.12,10.0,Calm,Calm,-,N/A,,Mostly Cloudy,0,2013-07-31 16:35:00
12:55 PM,75.2,55.4,50,30.11,10.0,West,6.9,-,N/A,,Mostly Cloudy,280,2013-07-31 16:55:00
1:15 PM,75.2,55.4,50,30.11,10.0,WSW,6.9,-,N/A,,Overcast,250,2013-07-31 17:15:00
1:35 PM,75.2,53.6,47,30.10,10.0,SW,3.5,-,N/A,,Mostly Cloudy,220,2013-07-31 17:35:00
1:55 PM,75.2,55.4,50,30.10,10.0,North,5.8,-,N/A,,Scattered Clouds,360,2013-07-31 17:55:00
2:15 PM,75.2,53.6,47,30.10,10.0,Calm,Calm,-,N/A,,Partly Cloudy,0,2013-07-31 18:15:00
2:35 PM,75.2,53.6,47,30.09,10.0,WNW,6.9,-,N/A,,Clear,300,2013-07-31 18:35:00
2:55 PM,75.2,53.6,47,30.09,10.0,West,8.1,-,N/A,,Partly Cloudy,270,2013-07-31 18:55:00
3:15 PM,77.0,53.6,44,30.08,10.0,SW,6.9,-,N/A,,Partly Cloudy,230,2013-07-31 19:15:00
3:35 PM,77.0,53.6,44,30.08,10.0,West,4.6,-,N/A,,Scattered Clouds,260,2013-07-31 19:35:00
3:55 PM,75.2,53.6,47,30.08,10.0,WSW,3.5,-,N/A,,Scattered Clouds,240,2013-07-31 19:55:00
4:15 PM,75.2,55.4,50,30.07,10.0,SW,6.9,-,N/A,,Scattered Clouds,220,2013-07-31 20:15:00
4:35 PM,77.0,55.4,47,30.07,10.0,WSW,4.6,-,N/A,,Partly Cloudy,240,2013-07-31 20:35:00
4:55 PM,77.0,53.6,44,30.06,10.0,WSW,3.5,-,N/A,,Clear,250,2013-07-31 20:55:00
5:15 PM,77.0,55.4,47,30.06,10.0,West,9.2,-,N/A,,Partly Cloudy,270,2013-07-31 21:15:00
5:35 PM,75.2,55.4,50,30.06,10.0,WSW,5.8,-,N/A,,Partly Cloudy,250,2013-07-31 21:35:00
5:55 PM,75.2,55.4,50,30.06,10.0,SW,4.6,-,N/A,,Clear,230,2013-07-31 21:55:00
6:15 PM,75.2,57.2,53,30.06,10.0,West,8.1,-,N/A,,Clear,260,2013-07-31 22:15:00
6:55 PM,73.4,57.2,57,30.06,10.0,Calm,Calm,-,N/A,,Clear,0,2013-07-31 22:55:00
7:15 PM,73.4,57.2,57,30.06,10.0,South,3.5,-,N/A,,Clear,190,2013-07-31 23:15:00
7:35 PM,73.4,60.8,65,30.05,10.0,ESE,3.5,-,N/A,,Clear,110,2013-07-31 23:35:00
7:55 PM,69.8,60.8,73,30.05,10.0,Calm,Calm,-,N/A,,Clear,0,2013-07-31 23:55:00
8:15 PM,68.0,60.8,78,30.05,10.0,Calm,Calm,-,N/A,,Clear,0,2013-08-01 00:15:00
8:35 PM,66.2,60.8,83,30.05,10.0,SE,6.9,-,N/A,,Clear,130,2013-08-01 00:35:00
8:55 PM,66.2,59.0,78,30.05,10.0,ESE,8.1,-,N/A,,Clear,120,2013-08-01 00:55:00
9:15 PM,64.4,59.0,83,30.06,10.0,SE,6.9,-,N/A,,Clear,130,2013-08-01 01:15:00
9:35 PM,64.4,59.0,83,30.06,10.0,SE,9.2,-,N/A,,Clear,130,2013-08-01 01:35:00
9:55 PM,64.4,57.2,77,30.06,10.0,SE,10.4,-,N/A,,Clear,130,2013-08-01 01:55:00
10:15 PM,62.6,57.2,82,30.06,10.0,SE,8.1,-,N/A,,Clear,140,2013-08-01 02:15:00
10:35 PM,62.6,57.2,82,30.06,10.0,SSE,8.1,-,N/A,,Clear,150,2013-08-01 02:35:00
10:55 PM,62.6,57.2,82,30.06,10.0,SE,12.7,-,N/A,,Clear,130,2013-08-01 02:55:00
11:15 PM,60.8,57.2,88,30.05,10.0,SSE,9.2,-,N/A,,Clear,150,2013-08-01 03:15:00
11:35 PM,60.8,57.2,88,30.06,10.0,SE,5.8,-,N/A,,Clear,130,2013-08-01 03:35:00
11:55 PM,60.8,55.4,82,30.06,10.0,SE,8.1,-,N/A,,Clear,140,2013-08-01 03:55:00